createdAt,value
2022-12-24T00:00:10.122Z,22.02
2022-12-24T00:05:13.715Z,22.33
2022-12-24T00:10:20.054Z,21.23
2022-12-24T00:15:23.421Z,20.85
2022-12-24T00:35:37.932Z,15.90
2022-12-24T00:40:41.542Z,15.88
2022-12-24T00:45:44.855Z,15.10
2022-12-24T00:55:51.243Z,12.85
2022-12-24T01:05:57.450Z,12.65
2022-12-24T01:11:02.381Z,13.07
2022-12-24T01:16:17.714Z,12.93
2022-12-24T01:21:21.175Z,14.32
2022-12-24T01:26:25.026Z,12.30
2022-12-24T01:41:34.484Z,12.50
2022-12-24T01:46:38.041Z,11.98
2022-12-24T01:51:48.001Z,12.00
2022-12-24T01:57:00.610Z,13.20
2022-12-24T02:02:04.843Z,12.68
2022-12-24T02:07:08.523Z,12.32
2022-12-24T02:12:11.935Z,12.95
2022-12-24T02:17:36.665Z,12.88
2022-12-24T02:23:01.631Z,13.60
2022-12-24T02:28:21.680Z,12.27
2022-12-24T02:33:42.863Z,14.32
2022-12-24T02:38:54.063Z,13.93
2022-12-24T02:43:58.752Z,15.60
2022-12-24T02:49:02.858Z,14.82
2022-12-24T02:54:06.618Z,15.15
2022-12-24T02:59:46.101Z,14.27
2022-12-24T03:04:56.779Z,16.42
2022-12-24T03:10:12.009Z,16.90
2022-12-24T03:15:19.145Z,16.55
2022-12-24T03:20:28.450Z,16.67
2022-12-24T03:25:34.059Z,16.25
2022-12-24T03:30:41.480Z,17.58
2022-12-24T03:35:45.711Z,16.27
2022-12-24T03:40:49.175Z,16.38
2022-12-24T03:45:53.112Z,16.40
2022-12-24T03:50:56.575Z,16.25
2022-12-24T03:55:59.935Z,17.45
2022-12-24T04:06:10.011Z,16.42
2022-12-24T04:11:16.359Z,16.92
2022-12-24T04:16:20.001Z,17.98
2022-12-24T04:21:23.704Z,18.50
2022-12-24T04:26:27.250Z,20.13
2022-12-24T04:31:30.819Z,25.92
2022-12-24T04:36:35.247Z,24.55
2022-12-24T04:41:38.629Z,25.55
2022-12-24T04:56:50.263Z,24.02
2022-12-24T05:01:54.080Z,22.73
2022-12-24T05:06:57.807Z,22.02
2022-12-24T05:12:04.959Z,22.45
2022-12-24T05:17:08.628Z,24.10
2022-12-24T05:22:13.955Z,22.35
2022-12-24T05:27:17.437Z,21.67
2022-12-24T05:32:21.914Z,20.80
2022-12-24T05:37:25.526Z,19.58
2022-12-24T05:42:28.833Z,18.52
2022-12-24T05:52:35.591Z,18.90
2022-12-24T05:57:41.479Z,18.92
2022-12-24T06:02:45.099Z,19.75
2022-12-24T06:07:50.305Z,20.70
2022-12-24T06:12:53.830Z,20.70
2022-12-24T06:17:57.327Z,20.02
2022-12-24T06:23:00.950Z,22.02
2022-12-24T06:28:04.852Z,20.42
2022-12-24T06:33:09.343Z,20.50
2022-12-24T06:38:13.889Z,20.73
2022-12-24T06:43:17.576Z,18.90
2022-12-24T06:48:21.336Z,20.15
2022-12-24T06:53:24.889Z,21.23
2022-12-24T06:58:28.376Z,20.67
2022-12-24T07:03:32.468Z,20.58
2022-12-24T07:08:36.298Z,20.88
2022-12-24T07:13:41.136Z,20.23
2022-12-24T07:18:45.020Z,20.10
2022-12-24T07:23:49.349Z,19.10
2022-12-24T07:28:53.048Z,18.73
2022-12-24T07:33:56.499Z,19.67
2022-12-24T07:39:00.025Z,18.80
2022-12-24T07:44:03.776Z,19.83
2022-12-24T07:49:07.727Z,19.08
2022-12-24T07:54:11.426Z,18.77
2022-12-24T07:59:15.104Z,18.13
2022-12-24T08:04:18.598Z,18.17
2022-12-24T08:09:21.965Z,17.70
2022-12-24T08:14:25.471Z,20.17
2022-12-24T08:19:28.924Z,17.27
2022-12-24T08:24:32.306Z,17.02
2022-12-24T08:29:42.823Z,17.92
2022-12-24T08:34:46.957Z,20.05
2022-12-24T08:39:50.261Z,18.45
2022-12-24T08:44:53.769Z,19.02
2022-12-24T08:49:57.300Z,17.77
2022-12-24T08:55:00.961Z,18.00
2022-12-24T09:00:08.362Z,17.35
2022-12-24T09:05:12.018Z,16.10
2022-12-24T09:10:15.721Z,16.38
2022-12-24T09:15:19.867Z,18.35
2022-12-24T09:20:23.383Z,16.60
2022-12-24T09:25:27.150Z,16.98
2022-12-24T09:30:33.869Z,19.20
2022-12-24T09:35:40.277Z,18.20
2022-12-24T09:40:44.780Z,18.83
2022-12-24T09:45:51.782Z,17.75
2022-12-24T09:51:12.882Z,17.85
2022-12-24T09:56:23.027Z,17.95
2022-12-24T10:01:29.512Z,21.55
2022-12-24T10:07:11.280Z,19.10
2022-12-24T10:12:23.432Z,18.75
2022-12-24T10:18:06.723Z,17.97
2022-12-24T10:23:43.776Z,19.40
2022-12-24T10:29:07.412Z,17.25
2022-12-24T10:34:22.815Z,16.58
2022-12-24T10:39:27.414Z,17.70
2022-12-24T10:44:34.299Z,19.30
2022-12-24T10:49:56.507Z,18.17
2022-12-24T10:55:18.326Z,18.73
2022-12-24T11:00:29.962Z,17.42
2022-12-24T11:05:39.818Z,17.67
2022-12-24T11:11:02.761Z,17.80
2022-12-24T11:16:08.657Z,17.13
2022-12-24T11:21:18.906Z,16.92
2022-12-24T11:26:24.778Z,18.35
2022-12-24T11:31:28.193Z,16.90
2022-12-24T11:36:32.405Z,17.80
2022-12-24T11:41:39.967Z,16.27
2022-12-24T11:46:44.481Z,17.02
2022-12-24T11:52:01.330Z,18.77
2022-12-24T11:57:05.850Z,17.77
2022-12-24T12:02:38.998Z,17.02
2022-12-24T12:12:53.397Z,16.23
2022-12-24T12:18:16.752Z,17.08
2022-12-24T12:23:41.291Z,14.82
2022-12-24T12:29:11.246Z,12.98
2022-12-24T12:34:24.039Z,13.18
2022-12-24T12:39:27.737Z,11.35
2022-12-24T12:45:10.049Z,12.65
2022-12-24T12:50:27.606Z,10.15
2022-12-24T12:55:55.815Z,9.88
2022-12-24T13:01:33.176Z,10.38
2022-12-24T13:07:19.735Z,9.18
2022-12-24T13:12:40.903Z,9.02
2022-12-24T13:18:05.671Z,8.52
2022-12-24T13:23:20.092Z,8.57
2022-12-24T13:28:23.370Z,8.95
2022-12-24T13:33:48.899Z,8.85
2022-12-24T13:38:55.303Z,9.90
2022-12-24T13:44:06.779Z,10.85
2022-12-24T13:49:21.886Z,10.25
2022-12-24T13:54:26.214Z,10.45
2022-12-24T13:59:38.979Z,11.45
2022-12-24T14:14:53.794Z,9.88
2022-12-24T14:20:00.246Z,10.77
2022-12-24T14:25:15.204Z,11.32
2022-12-24T14:30:26.002Z,10.82
2022-12-24T14:35:36.356Z,10.55
2022-12-24T14:41:06.864Z,10.07
2022-12-24T14:46:13.007Z,9.10
2022-12-24T14:51:36.392Z,8.32
2022-12-24T14:56:40.133Z,7.82
2022-12-24T15:01:45.608Z,7.55
2022-12-24T15:06:57.418Z,7.57
2022-12-24T15:12:03.857Z,8.00
2022-12-24T15:17:08.831Z,7.93
2022-12-24T15:22:22.818Z,7.75
2022-12-24T15:27:29.138Z,7.55
2022-12-24T15:32:34.835Z,8.57
2022-12-24T15:37:41.936Z,7.93
2022-12-24T15:42:45.836Z,7.65
2022-12-24T15:48:10.147Z,8.13
2022-12-24T15:53:26.208Z,8.88
2022-12-24T15:58:33.933Z,7.70
2022-12-24T16:03:40.154Z,8.60
2022-12-24T16:08:47.528Z,7.53
2022-12-24T16:13:51.822Z,9.18
2022-12-24T16:19:00.302Z,8.80
2022-12-24T16:24:26.599Z,8.07
2022-12-24T16:29:30.053Z,9.80
2022-12-24T16:34:34.596Z,8.18
2022-12-24T16:39:38.459Z,8.50
2022-12-24T16:44:43.975Z,7.93
2022-12-24T16:49:47.597Z,7.45
2022-12-24T16:54:51.253Z,8.05
2022-12-24T16:59:55.793Z,7.13
2022-12-24T17:04:59.366Z,7.72
2022-12-24T17:10:02.940Z,8.68
2022-12-24T17:15:07.398Z,8.52
2022-12-24T17:20:11.383Z,8.73
2022-12-24T17:25:14.941Z,8.60
2022-12-24T17:30:18.674Z,8.70
2022-12-24T17:35:22.066Z,9.52
2022-12-24T17:40:25.895Z,8.10
2022-12-24T17:45:29.293Z,8.05
2022-12-24T17:55:41.460Z,7.38
2022-12-24T18:00:44.806Z,7.07
2022-12-24T18:10:51.304Z,6.82
2022-12-24T18:26:06.023Z,6.60
2022-12-24T18:31:13.809Z,6.65
2022-12-24T18:36:19.523Z,7.45
2022-12-24T18:41:26.314Z,7.43
2022-12-24T18:46:32.328Z,7.60
2022-12-24T18:51:36.070Z,9.02
2022-12-24T18:56:39.486Z,8.98
2022-12-24T19:01:43.089Z,9.63
2022-12-24T19:06:52.640Z,10.45
2022-12-24T19:11:58.135Z,10.82
2022-12-24T19:17:07.562Z,11.15
2022-12-24T19:22:12.033Z,10.65
2022-12-24T19:27:15.613Z,10.13
2022-12-24T19:32:20.442Z,9.98
2022-12-24T19:37:24.243Z,10.65
2022-12-24T19:42:27.807Z,10.40
2022-12-24T19:47:31.377Z,11.60
2022-12-24T19:52:34.916Z,11.60
2022-12-24T19:57:38.547Z,11.23
2022-12-24T20:02:44.087Z,11.18
2022-12-24T20:07:47.827Z,11.32
2022-12-24T20:12:54.472Z,13.18
2022-12-24T20:18:00.129Z,11.45
2022-12-24T20:23:04.455Z,12.82
2022-12-24T20:28:08.363Z,12.23
2022-12-24T20:33:12.796Z,10.93
2022-12-24T20:38:16.533Z,11.75
2022-12-24T20:43:24.252Z,12.50
2022-12-24T20:48:30.418Z,14.15
2022-12-24T20:53:35.637Z,14.10
2022-12-24T20:58:39.924Z,14.48
2022-12-24T21:03:45.450Z,14.88
2022-12-24T21:08:50.958Z,13.95
2022-12-24T21:13:54.772Z,14.18
2022-12-24T21:18:59.064Z,13.95
2022-12-24T21:24:04.651Z,13.82
2022-12-24T21:29:08.204Z,11.02
2022-12-24T21:34:12.199Z,8.60
2022-12-24T21:39:16.596Z,7.25
2022-12-24T21:44:20.171Z,5.63
2022-12-24T21:49:23.903Z,5.03
2022-12-24T21:54:29.238Z,4.70
2022-12-24T21:59:32.780Z,5.85
2022-12-24T22:04:36.409Z,5.45
2022-12-24T22:09:40.645Z,5.57
2022-12-24T22:14:44.361Z,5.97
2022-12-24T22:19:48.904Z,6.10
2022-12-24T22:24:52.589Z,6.05
2022-12-24T22:29:55.940Z,6.60
2022-12-24T22:40:02.609Z,6.45
2022-12-24T22:45:07.583Z,7.57
2022-12-24T22:50:11.754Z,8.10
2022-12-24T22:55:15.680Z,7.70
2022-12-24T23:00:41.664Z,8.23
2022-12-24T23:05:45.703Z,8.60
2022-12-24T23:10:50.143Z,10.30
2022-12-24T23:15:54.461Z,10.48
2022-12-24T23:20:57.876Z,11.30
2022-12-24T23:26:11.496Z,13.27
2022-12-24T23:31:17.034Z,13.07
2022-12-24T23:36:20.973Z,15.23
2022-12-24T23:41:24.478Z,15.07
2022-12-24T23:46:28.104Z,15.95
2022-12-24T23:51:32.302Z,14.10
2022-12-24T23:56:35.910Z,14.02
